METAR Data
IDs: Format: Raw Decoded Include TAF

Data at: 2140 UTC 01 Dec 2021

METAR for:KARW (Beaufort Cnty, GA, US)
Text:KARW 012135Z AUTO 00000KT 10SM BKN036 BKN043 16/03 A3015 RMK AO2
Temperature: 16.0°C ( 61°F)
Dewpoint: 3.0°C ( 37°F) [RH = 42%]
Pressure (altimeter):30.15 inches Hg (1021.1 mb)
Winds:calm
Visibility:10 or more sm (16+ km)
Ceiling:3600 feet AGL
Clouds: broken clouds at 3600 feet AGL, broken clouds at 4300 feet AGL
QC Flag:automated observation with no human augmentation